Time;durP1;ratioP1;P1;durP2;ratioP2;P2;SDS_P1;SDS_P2;PMS_P1;PMS_P2;Temp;Humidity;BMP_temperature;BMP_pressure;BME280_temperature;BME280_humidity;BME280_pressure;Samples;Min_cycle;Max_cycle;Signal;HPM_P1;HPM_P2
2021/03/05 00:00:13;;;;;;;21.37;8.80;;;-1.50;99.90;;;;;;5239893;28;20235;-75
2021/03/05 00:02:46;;;;;;;20.97;8.87;;;-1.40;99.90;;;;;;5241655;28;20197;-77
2021/03/05 00:05:37;;;;;;;20.43;8.10;;;-1.40;99.90;;;;;;5242711;28;20283;-78
2021/03/05 00:08:10;;;;;;;18.17;8.23;;;-1.40;99.90;;;;;;5238586;28;20304;-79
2021/03/05 00:14:27;;;;;;;16.23;7.53;;;-1.30;99.90;;;;;;5236131;28;20634;-80
2021/03/05 00:16:59;;;;;;;21.50;8.13;;;-1.30;99.90;;;;;;5238356;28;20239;-80
2021/03/05 00:19:31;;;;;;;18.33;7.57;;;-1.30;99.90;;;;;;5237806;28;20205;-78
2021/03/05 00:22:04;;;;;;;18.93;7.13;;;-1.30;99.90;;;;;;5245023;28;20198;-76
2021/03/05 00:24:35;;;;;;;19.00;7.47;;;-1.30;99.90;;;;;;5244950;28;20222;-79
2021/03/05 00:27:07;;;;;;;19.27;7.20;;;-1.30;99.90;;;;;;5245604;28;20223;-78
2021/03/05 00:29:39;;;;;;;21.27;7.47;;;-1.30;99.90;;;;;;5248330;28;20221;-78
2021/03/05 00:32:11;;;;;;;17.47;6.83;;;-1.30;99.90;;;;;;5249582;28;20225;-74
2021/03/05 00:34:42;;;;;;;21.87;7.37;;;-1.30;99.90;;;;;;5241076;28;20198;-77
2021/03/05 00:37:14;;;;;;;15.40;6.00;;;-1.20;99.90;;;;;;5242515;28;20200;-75
2021/03/05 00:39:46;;;;;;;13.93;5.90;;;-1.20;99.90;;;;;;5242746;28;20275;-75
2021/03/05 00:42:18;;;;;;;14.07;5.53;;;-1.20;99.90;;;;;;5247808;28;20254;-76
2021/03/05 00:44:49;;;;;;;13.23;5.90;;;-1.20;99.90;;;;;;5247005;28;20244;-75
2021/03/05 00:47:21;;;;;;;13.20;6.20;;;-1.10;99.90;;;;;;5242132;28;20197;-75
2021/03/05 00:49:53;;;;;;;14.43;6.23;;;-1.10;99.90;;;;;;5240391;28;20201;-75
2021/03/05 00:52:24;;;;;;;14.27;5.80;;;-1.10;99.90;;;;;;5243716;28;20221;-76
2021/03/05 00:55:04;;;;;;;12.33;5.67;;;-1.10;99.90;;;;;;5235582;28;20193;-78
2021/03/05 00:57:36;;;;;;;16.00;5.87;;;-1.10;99.90;;;;;;5241513;28;20207;-81
2021/03/05 01:00:14;;;;;;;13.80;5.87;;;-1.20;99.90;;;;;;5236223;28;20192;-78
2021/03/05 01:02:47;;;;;;;12.80;5.87;;;-1.20;99.90;;;;;;5236193;28;20221;-79
2021/03/05 01:05:19;;;;;;;16.43;5.20;;;-1.20;99.90;;;;;;5236276;28;20247;-77
2021/03/05 01:07:50;;;;;;;11.90;5.00;;;-1.20;99.90;;;;;;5234030;28;20199;-78
2021/03/05 01:10:22;;;;;;;11.23;4.97;;;-1.20;99.90;;;;;;5229041;28;20200;-77
2021/03/05 01:12:56;;;;;;;11.47;5.60;;;-1.20;99.90;;;;;;5230149;28;20232;-79
2021/03/05 01:15:28;;;;;;;12.57;5.27;;;-1.20;99.90;;;;;;5229695;28;20192;-79
2021/03/05 01:17:59;;;;;;;14.40;5.07;;;-1.20;99.90;;;;;;5230876;28;20197;-78
2021/03/05 01:20:32;;;;;;;10.73;4.80;;;-1.20;99.90;;;;;;5230675;28;20197;-80
2021/03/05 01:23:04;;;;;;;12.07;4.90;;;-1.20;99.90;;;;;;5235153;28;20198;-80
2021/03/05 01:25:35;;;;;;;13.90;4.73;;;-1.20;99.90;;;;;;5237516;28;20248;-77
2021/03/05 01:28:10;;;;;;;13.73;4.93;;;-1.20;99.90;;;;;;5238959;28;20202;-79
2021/03/05 01:30:41;;;;;;;17.00;5.20;;;-1.30;99.90;;;;;;5238973;28;20196;-81
2021/03/05 01:33:14;;;;;;;12.53;5.63;;;-1.30;99.90;;;;;;5242586;28;20259;-81
2021/03/05 01:35:46;;;;;;;15.27;5.83;;;-1.30;99.90;;;;;;5244453;28;20196;-81
2021/03/05 01:38:18;;;;;;;14.80;5.23;;;-1.40;99.90;;;;;;5230517;28;20284;-80
2021/03/05 01:40:50;;;;;;;15.50;5.23;;;-1.40;99.90;;;;;;5230565;28;20205;-81
2021/03/05 01:43:21;;;;;;;12.73;5.43;;;-1.40;99.90;;;;;;5228903;28;20185;-80
2021/03/05 01:45:53;;;;;;;12.53;5.10;;;-1.40;99.90;;;;;;5231908;28;20201;-79
2021/03/05 01:48:25;;;;;;;11.07;4.40;;;-1.40;99.90;;;;;;5233078;28;20196;-81
2021/03/05 01:51:11;;;;;;;12.17;4.40;;;-1.40;99.90;;;;;;5230715;28;20194;-81
2021/03/05 01:53:45;;;;;;;11.90;4.50;;;-1.40;99.90;;;;;;5231318;28;20555;-80
2021/03/05 01:56:35;;;;;;;12.17;3.97;;;-1.40;99.90;;;;;;5230700;28;20549;-79
2021/03/05 01:59:12;;;;;;;9.23;4.00;;;-1.30;99.90;;;;;;5230244;28;20215;-79
2021/03/05 02:01:44;;;;;;;9.63;3.77;;;-1.30;99.90;;;;;;5231338;28;20283;-80
2021/03/05 02:04:18;;;;;;;11.03;3.93;;;-1.30;99.90;;;;;;5231526;28;20217;-78
2021/03/05 02:07:06;;;;;;;9.97;3.83;;;-1.30;99.90;;;;;;5231759;28;20197;-76
2021/03/05 02:13:24;;;;;;;9.87;4.17;;;-1.30;99.90;;;;;;5233563;28;20706;-74
2021/03/05 02:15:59;;;;;;;10.50;4.83;;;-1.30;99.90;;;;;;5240067;28;20193;-75
2021/03/05 02:18:44;;;;;;;7.30;3.57;;;-1.40;99.90;;;;;;5246891;28;20192;-73
2021/03/05 02:21:27;;;;;;;9.77;3.60;;;-1.40;99.90;;;;;;5250183;28;20211;-79
2021/03/05 02:28:49;;;;;;;10.30;4.03;;;-1.40;99.90;;;;;;5230161;28;20207;-74
2021/03/05 02:31:29;;;;;;;9.50;3.83;;;-1.40;99.90;;;;;;5186074;28;20209;-74
2021/03/05 02:34:21;;;;;;;12.57;3.80;;;-1.40;99.90;;;;;;5224853;28;20204;-75
2021/03/05 02:37:01;;;;;;;12.43;4.43;;;-1.40;99.90;;;;;;5230011;28;20206;-74
2021/03/05 02:40:01;;;;;;;7.23;3.10;;;-1.30;99.90;;;;;;5229659;28;20317;-78
2021/03/05 02:42:50;;;;;;;8.27;2.93;;;-1.30;99.90;;;;;;5236782;28;20215;-75
2021/03/05 02:45:26;;;;;;;11.03;3.73;;;-1.30;99.90;;;;;;5241650;28;20236;-79
2021/03/05 02:48:04;;;;;;;9.67;3.10;;;-1.40;99.90;;;;;;5250061;28;20238;-73
2021/03/05 02:50:40;;;;;;;6.23;2.87;;;-1.40;99.90;;;;;;5248843;28;20222;-75
2021/03/05 02:53:17;;;;;;;8.87;3.40;;;-1.30;99.90;;;;;;5248018;28;20292;-75
2021/03/05 02:55:55;;;;;;;7.67;2.80;;;-1.40;99.90;;;;;;5248364;28;20209;-76
2021/03/05 02:58:28;;;;;;;8.63;2.87;;;-1.40;99.90;;;;;;5243082;28;20211;-79
2021/03/05 03:01:01;;;;;;;8.43;3.10;;;-1.40;99.90;;;;;;5233424;28;20197;-80
2021/03/05 03:03:34;;;;;;;7.13;2.63;;;-1.40;99.90;;;;;;5231976;28;20242;-78
2021/03/05 03:06:11;;;;;;;5.33;2.70;;;-1.40;99.90;;;;;;5232525;28;20536;-79
2021/03/05 03:08:44;;;;;;;5.73;2.63;;;-1.50;99.90;;;;;;5233045;28;20215;-77
2021/03/05 03:11:17;;;;;;;7.73;2.83;;;-1.60;99.90;;;;;;5231757;28;20205;-79
2021/03/05 03:13:48;;;;;;;13.40;3.87;;;-1.60;99.90;;;;;;5231110;28;20695;-78
2021/03/05 03:16:22;;;;;;;7.47;3.03;;;-1.70;99.90;;;;;;5232303;28;20197;-78
2021/03/05 03:18:56;;;;;;;6.83;2.90;;;-1.70;99.90;;;;;;5230196;28;20192;-79
2021/03/05 03:21:28;;;;;;;5.07;3.03;;;-1.80;99.90;;;;;;5229558;28;20280;-79
2021/03/05 03:24:00;;;;;;;11.73;3.93;;;-1.80;99.90;;;;;;5229739;28;20217;-79
2021/03/05 03:26:37;;;;;;;7.13;2.80;;;-1.80;99.90;;;;;;5229138;28;20250;-79
2021/03/05 03:29:11;;;;;;;6.43;2.60;;;-1.90;99.90;;;;;;5228372;28;20219;-81
2021/03/05 03:31:45;;;;;;;6.83;3.00;;;-1.90;99.90;;;;;;5228578;28;20207;-77
2021/03/05 03:34:19;;;;;;;10.50;3.47;;;-1.90;99.90;;;;;;5228642;28;20723;-79
2021/03/05 03:36:51;;;;;;;8.23;3.30;;;-2.00;99.90;;;;;;5232241;28;20193;-77
2021/03/05 03:43:08;;;;;;;5.90;2.90;;;-2.10;99.90;;;;;;5232245;28;20185;-78
2021/03/05 03:45:41;;;;;;;6.40;3.37;;;-2.10;99.90;;;;;;5232368;28;20224;-77
2021/03/05 03:48:14;;;;;;;7.23;3.43;;;-2.10;99.90;;;;;;5232100;28;20286;-78
2021/03/05 03:50:52;;;;;;;9.60;3.97;;;-2.20;99.90;;;;;;5232215;28;20192;-79
2021/03/05 03:53:27;;;;;;;12.67;4.30;;;-2.20;99.90;;;;;;5232670;28;20215;-78
2021/03/05 03:59:47;;;;;;;10.43;3.47;;;-2.20;99.90;;;;;;5232063;28;20176;-79
2021/03/05 04:02:24;;;;;;;11.67;4.53;;;-2.40;99.90;;;;;;5232549;28;20235;-81
2021/03/05 04:04:59;;;;;;;13.30;4.73;;;-2.40;99.90;;;;;;5233664;28;20222;-78
2021/03/05 04:07:32;;;;;;;12.40;5.07;;;-2.50;99.90;;;;;;5235628;28;20196;-80
2021/03/05 04:10:04;;;;;;;15.20;5.40;;;-2.50;99.90;;;;;;5235782;28;20557;-77
2021/03/05 04:12:37;;;;;;;11.47;4.13;;;-2.50;99.90;;;;;;5234319;28;20195;-77
2021/03/05 04:15:11;;;;;;;15.20;4.57;;;-2.50;99.90;;;;;;5234127;28;20333;-80
2021/03/05 04:17:44;;;;;;;9.43;4.23;;;-2.50;99.90;;;;;;5234398;28;20291;-77
2021/03/05 04:20:18;;;;;;;10.90;4.77;;;-2.50;99.90;;;;;;5232209;28;20601;-79
2021/03/05 04:22:51;;;;;;;8.67;4.77;;;-2.50;99.90;;;;;;5231588;28;20247;-77
2021/03/05 04:25:23;;;;;;;10.90;4.40;;;-2.50;99.90;;;;;;5231697;28;20224;-79
2021/03/05 04:27:55;;;;;;;8.53;3.83;;;-2.50;99.90;;;;;;5231760;28;20201;-81
2021/03/05 04:30:28;;;;;;;9.63;4.13;;;-2.50;99.90;;;;;;5232195;28;20201;-80
2021/03/05 04:33:00;;;;;;;6.83;3.77;;;-2.50;99.90;;;;;;5233169;28;20604;-80
2021/03/05 04:35:32;;;;;;;8.03;3.80;;;-2.50;99.90;;;;;;5235111;28;20193;-79
2021/03/05 04:38:04;;;;;;;7.10;3.33;;;-2.40;99.90;;;;;;5234030;28;20662;-80
2021/03/05 04:40:35;;;;;;;8.13;4.23;;;-2.40;99.90;;;;;;5233141;28;20583;-80
2021/03/05 04:43:07;;;;;;;9.73;4.27;;;-2.40;99.90;;;;;;5233161;28;20191;-79
2021/03/05 04:45:42;;;;;;;10.73;4.47;;;-2.40;99.90;;;;;;5231500;28;20223;-79
2021/03/05 04:48:14;;;;;;;10.30;3.90;;;-2.30;99.90;;;;;;5231730;28;20196;-79
2021/03/05 04:50:47;;;;;;;9.50;3.30;;;-2.30;99.90;;;;;;5233563;28;20222;-80
2021/03/05 04:53:19;;;;;;;6.30;3.40;;;-2.30;99.90;;;;;;5232953;28;20191;-79
2021/03/05 04:55:50;;;;;;;5.73;3.37;;;-2.20;99.90;;;;;;5232591;28;20659;-79
2021/03/05 04:58:22;;;;;;;7.40;3.57;;;-2.20;99.90;;;;;;5232712;28;20195;-80
2021/03/05 05:00:57;;;;;;;7.53;3.33;;;-2.20;99.90;;;;;;5233111;28;20238;-78
2021/03/05 05:03:29;;;;;;;9.73;4.03;;;-2.10;99.90;;;;;;5231052;28;20196;-79
2021/03/05 05:06:00;;;;;;;9.50;3.27;;;-2.10;99.90;;;;;;5231172;28;20193;-77
2021/03/05 05:08:32;;;;;;;8.47;3.53;;;-2.00;99.90;;;;;;5231024;28;20559;-77
2021/03/05 05:11:04;;;;;;;5.83;2.93;;;-1.90;99.90;;;;;;5230896;28;20207;-78
2021/03/05 05:13:35;;;;;;;6.17;2.87;;;-1.90;99.90;;;;;;5230502;28;20246;-78
2021/03/05 05:16:07;;;;;;;8.83;2.90;;;-1.80;99.90;;;;;;5230987;28;20197;-77
2021/03/05 05:18:39;;;;;;;7.43;2.80;;;-1.80;99.90;;;;;;5231014;28;20200;-80
2021/03/05 05:21:11;;;;;;;4.83;2.60;;;-1.70;99.90;;;;;;5231039;28;20292;-77
2021/03/05 05:23:42;;;;;;;4.73;2.00;;;-1.70;99.90;;;;;;5231132;28;20265;-82
2021/03/05 05:26:15;;;;;;;4.00;1.90;;;-1.70;99.90;;;;;;5231043;28;20205;-82
2021/03/05 05:28:47;;;;;;;5.53;2.60;;;-1.70;99.90;;;;;;5230825;28;20593;-78
2021/03/05 05:31:18;;;;;;;7.80;3.13;;;-1.70;99.90;;;;;;5231203;28;20205;-84
2021/03/05 05:33:52;;;;;;;8.03;2.70;;;-1.60;99.90;;;;;;5233104;28;20192;-81
2021/03/05 05:36:25;;;;;;;7.30;2.63;;;-1.60;99.90;;;;;;5231896;28;20639;-78
2021/03/05 05:38:57;;;;;;;4.63;2.67;;;-1.60;99.90;;;;;;5231520;28;20580;-82
2021/03/05 05:41:29;;;;;;;5.10;2.40;;;-1.60;99.90;;;;;;5239039;28;20243;-83
2021/03/05 05:44:01;;;;;;;5.07;2.70;;;-1.60;99.90;;;;;;5236956;28;20217;-81
2021/03/05 05:46:35;;;;;;;4.43;2.33;;;-1.70;99.90;;;;;;5236081;28;20638;-82
2021/03/05 05:49:10;;;;;;;4.73;2.20;;;-1.70;99.90;;;;;;5239722;28;20258;-83
2021/03/05 05:51:42;;;;;;;3.67;1.83;;;-1.80;99.90;;;;;;5239675;28;20197;-81
2021/03/05 05:54:23;;;;;;;3.17;1.50;;;-1.80;99.90;;;;;;5234999;28;20200;-81
2021/03/05 05:56:56;;;;;;;3.53;1.97;;;-1.80;99.90;;;;;;5235859;28;20227;-82
2021/03/05 05:59:28;;;;;;;6.03;1.97;;;-1.90;99.90;;;;;;5236955;28;20200;-82
2021/03/05 06:02:00;;;;;;;6.30;1.67;;;-1.90;99.90;;;;;;5245672;28;20293;-81
2021/03/05 06:04:32;;;;;;;3.43;1.83;;;-1.90;99.90;;;;;;5247041;28;20216;-81
2021/03/05 06:07:04;;;;;;;5.70;2.47;;;-1.90;99.90;;;;;;5252984;28;20260;-77
2021/03/05 06:09:36;;;;;;;4.73;2.70;;;-1.90;99.90;;;;;;5252967;28;20192;-78
2021/03/05 06:12:12;;;;;;;5.30;2.10;;;-1.90;99.90;;;;;;5253852;28;20201;-77
2021/03/05 06:14:45;;;;;;;6.60;2.00;;;-1.90;99.90;;;;;;5253895;28;20293;-78
2021/03/05 06:17:16;;;;;;;6.17;2.10;;;-1.90;99.90;;;;;;5251503;28;20217;-80
2021/03/05 06:19:55;;;;;;;5.47;2.60;;;-1.80;99.90;;;;;;5248609;28;20212;-78
2021/03/05 06:22:27;;;;;;;4.33;2.10;;;-1.80;99.90;;;;;;5247286;28;20234;-81
2021/03/05 06:29:01;;;;;;;2.93;2.00;;;-1.60;99.90;;;;;;5245199;28;20175;-77
2021/03/05 06:31:34;;;;;;;4.60;2.27;;;-1.60;99.90;;;;;;5249486;28;20306;-77
2021/03/05 06:34:05;;;;;;;5.90;2.30;;;-1.50;99.90;;;;;;5249668;28;20189;-75
2021/03/05 06:36:38;;;;;;;8.70;2.47;;;-1.00;99.90;;;;;;5242630;28;20200;-77
2021/03/05 06:39:09;;;;;;;7.90;3.00;;;-0.10;99.90;;;;;;5231500;28;20201;-78
2021/03/05 06:45:36;;;;;;;6.80;2.63;;;3.10;99.90;;;;;;5229618;28;20221;-74
2021/03/05 06:48:09;;;;;;;7.87;3.53;;;5.80;99.90;;;;;;5229470;28;20652;-78
2021/03/05 06:50:44;;;;;;;8.50;3.70;;;6.90;99.90;;;;;;5228998;28;20197;-78
2021/03/05 06:53:26;;;;;;;11.37;4.80;;;7.10;99.90;;;;;;5227709;28;20215;-80
2021/03/05 06:56:00;;;;;;;12.77;5.70;;;7.70;99.90;;;;;;5229387;28;20573;-79
2021/03/05 06:58:33;;;;;;;15.67;6.63;;;8.00;99.90;;;;;;5228665;28;20255;-78
2021/03/05 07:01:05;;;;;;;12.47;6.93;;;8.20;99.90;;;;;;5229508;28;20190;-76
2021/03/05 07:03:38;;;;;;;11.27;6.50;;;8.40;99.90;;;;;;5226449;28;20244;-79
2021/03/05 07:06:17;;;;;;;13.07;6.33;;;8.20;99.90;;;;;;5228090;28;20229;-79
2021/03/05 07:08:48;;;;;;;14.07;7.17;;;8.00;99.90;;;;;;5227672;28;20221;-78
2021/03/05 07:11:41;;;;;;;16.77;8.00;;;8.00;99.90;;;;;;5228286;28;20205;-78
2021/03/05 07:14:14;;;;;;;10.80;6.03;;;7.80;99.90;;;;;;5203759;28;20244;-80
2021/03/05 07:16:49;;;;;;;12.07;6.70;;;8.00;99.90;;;;;;5228462;28;20284;-79
2021/03/05 07:19:25;;;;;;;13.80;6.40;;;8.20;99.90;;;;;;5229170;28;20193;-78
2021/03/05 07:22:10;;;;;;;8.23;4.50;;;8.20;99.90;;;;;;5184412;28;20233;-80
2021/03/05 07:28:45;;;;;;;9.13;4.70;;;9.00;99.90;;;;;;5214172;28;20202;-81
2021/03/05 07:31:23;;;;;;;7.53;3.97;;;9.70;99.90;;;;;;5209654;28;20206;-82
2021/03/05 07:34:03;;;;;;;9.60;4.33;;;9.20;99.90;;;;;;5211172;28;20279;-82
2021/03/05 07:36:46;;;;;;;8.40;4.40;;;7.90;99.90;;;;;;5208455;28;20672;-78
2021/03/05 07:39:32;;;;;;;10.20;4.83;;;6.30;99.90;;;;;;5206544;28;20228;-77
2021/03/05 07:42:07;;;;;;;8.33;4.80;;;5.10;99.90;;;;;;5206530;28;20417;-80
2021/03/05 07:44:38;;;;;;;10.83;5.20;;;4.20;99.90;;;;;;5205288;28;20200;-78
2021/03/05 07:47:13;;;;;;;10.13;5.40;;;3.70;99.90;;;;;;5209119;28;20317;-78
2021/03/05 07:49:45;;;;;;;14.53;6.23;;;3.20;99.90;;;;;;5208591;28;20232;-80
2021/03/05 07:52:19;;;;;;;12.73;5.77;;;3.00;99.90;;;;;;5207031;28;20225;-82
2021/03/05 07:54:51;;;;;;;11.30;5.47;;;2.80;99.90;;;;;;5207608;28;20218;-81
2021/03/05 07:57:23;;;;;;;12.47;5.83;;;2.70;99.90;;;;;;5210370;28;20217;-82
2021/03/05 07:59:59;;;;;;;11.73;5.03;;;2.60;99.90;;;;;;5240468;28;20194;-79
2021/03/05 08:02:52;;;;;;;13.93;5.60;;;2.50;99.90;;;;;;5235291;28;20190;-81
2021/03/05 08:05:41;;;;;;;9.40;4.87;;;2.50;99.90;;;;;;5231338;28;20204;-79
2021/03/05 08:08:19;;;;;;;12.23;4.50;;;2.40;99.90;;;;;;5234743;28;20205;-79
2021/03/05 08:14:46;;;;;;;8.97;3.47;;;2.40;99.90;;;;;;5228094;28;20246;-76
2021/03/05 08:17:51;;;;;;;7.07;3.60;;;2.20;99.90;;;;;;5230589;28;20281;-78
2021/03/05 08:20:45;;;;;;;6.97;3.30;;;2.10;99.90;;;;;;5144155;28;20243;-78
2021/03/05 08:23:41;;;;;;;7.17;4.10;;;2.00;99.90;;;;;;5136881;28;20411;-77
2021/03/05 08:30:21;;;;;;;7.53;3.37;;;2.20;99.90;;;;;;5234900;28;20668;-77
2021/03/05 08:32:57;;;;;;;6.43;3.40;;;2.10;99.90;;;;;;5237793;28;20197;-78
2021/03/05 08:35:29;;;;;;;9.87;4.00;;;2.10;99.90;;;;;;5238163;28;20225;-79
2021/03/05 08:38:05;;;;;;;6.27;3.43;;;2.30;99.90;;;;;;5239209;28;20534;-78
2021/03/05 08:40:48;;;;;;;6.60;3.33;;;2.40;99.90;;;;;;5245031;28;20189;-78
2021/03/05 08:43:26;;;;;;;6.73;3.27;;;2.30;99.90;;;;;;5240518;28;20186;-77
2021/03/05 08:46:04;;;;;;;8.63;3.47;;;2.30;99.90;;;;;;5239908;28;20289;-75
2021/03/05 08:48:42;;;;;;;7.27;3.53;;;2.40;99.90;;;;;;5243432;28;20204;-77
2021/03/05 08:51:20;;;;;;;10.50;3.70;;;2.50;99.90;;;;;;5247175;28;20232;-77
2021/03/05 08:53:58;;;;;;;7.03;3.20;;;2.60;99.90;;;;;;5234690;28;20339;-75
2021/03/05 08:56:31;;;;;;;9.80;3.40;;;2.80;99.90;;;;;;5231147;28;20273;-75
2021/03/05 08:59:04;;;;;;;6.10;3.07;;;2.90;99.90;;;;;;5227031;28;20280;-76
2021/03/05 09:01:37;;;;;;;7.63;4.17;;;3.00;99.90;;;;;;5220867;28;20196;-76
2021/03/05 09:04:20;;;;;;;9.03;4.30;;;3.00;99.90;;;;;;5226053;28;20194;-77
2021/03/05 09:06:57;;;;;;;8.33;3.43;;;2.90;99.90;;;;;;5230258;28;20656;-74
2021/03/05 09:09:32;;;;;;;7.37;3.67;;;3.00;99.90;;;;;;5230169;28;20566;-76
2021/03/05 09:12:22;;;;;;;8.90;2.87;;;3.10;99.90;;;;;;5231121;28;20644;-76
2021/03/05 09:15:02;;;;;;;7.20;3.20;;;3.30;99.90;;;;;;5228917;28;20244;-77
2021/03/05 09:17:33;;;;;;;7.00;3.13;;;3.40;99.90;;;;;;5231044;28;20623;-76
2021/03/05 09:20:07;;;;;;;8.30;3.30;;;3.40;99.90;;;;;;5230369;28;20225;-76
2021/03/05 09:22:41;;;;;;;8.03;2.93;;;3.50;99.90;;;;;;5231075;28;20220;-76
2021/03/05 09:25:13;;;;;;;8.87;3.40;;;3.50;99.90;;;;;;5228171;28;20196;-75
2021/03/05 09:27:46;;;;;;;5.27;2.37;;;3.60;99.90;;;;;;5230489;28;20201;-78
2021/03/05 09:30:21;;;;;;;7.60;2.37;;;3.80;99.90;;;;;;5229375;28;20194;-76
2021/03/05 09:32:56;;;;;;;9.67;2.23;;;4.00;99.90;;;;;;5230591;28;20209;-77
2021/03/05 09:35:31;;;;;;;4.40;2.10;;;4.10;99.90;;;;;;5230916;28;20225;-77
2021/03/05 09:38:03;;;;;;;4.20;2.27;;;4.10;99.90;;;;;;5230938;28;20648;-77
2021/03/05 09:40:38;;;;;;;5.53;2.10;;;4.20;99.90;;;;;;5231093;28;20567;-78
2021/03/05 09:43:15;;;;;;;9.20;2.33;;;4.20;99.90;;;;;;5161984;28;20238;-74
2021/03/05 09:45:52;;;;;;;9.53;3.10;;;4.10;99.90;;;;;;5164049;28;20211;-78
2021/03/05 09:48:31;;;;;;;4.53;2.10;;;3.90;99.90;;;;;;5163916;28;20199;-76
2021/03/05 09:51:07;;;;;;;9.33;2.70;;;3.30;99.90;;;;;;5163892;28;20218;-75
2021/03/05 09:53:56;;;;;;;5.97;3.03;;;3.20;99.90;;;;;;5163254;28;20497;-77
2021/03/05 10:00:31;;;;;;;4.90;2.50;;;3.70;99.90;;;;;;5175482;28;20180;-74
2021/03/05 10:03:11;;;;;;;9.37;2.73;;;4.10;99.90;;;;;;5230214;28;20296;-76
2021/03/05 10:05:45;;;;;;;7.73;2.90;;;4.40;99.90;;;;;;5230087;28;20543;-80
2021/03/05 10:08:26;;;;;;;6.83;2.30;;;4.60;99.90;;;;;;5230187;28;20200;-76
2021/03/05 10:11:11;;;;;;;5.73;2.43;;;4.80;99.90;;;;;;5229494;28;20682;-77
2021/03/05 10:13:55;;;;;;;5.90;2.67;;;4.80;99.90;;;;;;5228798;28;20299;-76
2021/03/05 10:16:29;;;;;;;6.87;2.87;;;4.80;99.90;;;;;;5228504;28;20221;-77
2021/03/05 10:19:13;;;;;;;12.57;2.33;;;4.60;99.90;;;;;;5228652;28;20196;-75
2021/03/05 10:21:54;;;;;;;4.83;2.20;;;4.70;99.90;;;;;;5230256;28;20186;-77
2021/03/05 10:24:28;;;;;;;3.80;1.70;;;4.80;99.90;;;;;;5230508;28;20742;-75
2021/03/05 10:27:19;;;;;;;10.27;2.10;;;4.40;99.90;;;;;;5228310;28;20193;-79
2021/03/05 10:29:59;;;;;;;7.83;1.93;;;4.20;99.90;;;;;;5229588;28;20194;-77
2021/03/05 10:32:37;;;;;;;4.43;2.00;;;4.10;99.90;;;;;;5229962;28;20201;-76
2021/03/05 10:35:12;;;;;;;5.63;1.80;;;4.00;99.90;;;;;;5231882;28;20251;-75
2021/03/05 10:37:47;;;;;;;5.03;1.93;;;4.10;99.90;;;;;;5230389;28;20193;-73
2021/03/05 10:40:19;;;;;;;5.30;1.40;;;4.30;99.90;;;;;;5229066;28;20209;-73
2021/03/05 10:42:51;;;;;;;4.93;1.80;;;4.30;99.90;;;;;;5228773;28;20456;-76
2021/03/05 10:45:22;;;;;;;5.13;1.97;;;4.20;99.90;;;;;;5234623;28;20441;-77
2021/03/05 10:47:54;;;;;;;3.80;1.70;;;4.30;99.90;;;;;;5237035;28;20194;-76
2021/03/05 10:50:26;;;;;;;3.80;1.73;;;4.10;99.90;;;;;;5233375;28;20218;-80
2021/03/05 10:52:58;;;;;;;3.27;1.40;;;4.00;99.90;;;;;;5229482;28;20192;-75
2021/03/05 10:55:30;;;;;;;4.17;1.53;;;4.00;99.90;;;;;;5229271;28;20305;-75
2021/03/05 10:58:03;;;;;;;3.67;1.80;;;4.00;99.90;;;;;;5229498;28;20624;-80
2021/03/05 11:00:36;;;;;;;4.07;1.87;;;3.90;99.90;;;;;;5228604;28;20561;-77
2021/03/05 11:03:08;;;;;;;9.00;2.03;;;4.00;99.90;;;;;;5227238;28;20193;-73
2021/03/05 11:05:40;;;;;;;6.03;2.00;;;4.20;99.90;;;;;;5228527;28;20598;-72
2021/03/05 11:08:15;;;;;;;5.73;2.40;;;4.50;99.90;;;;;;5228032;28;20567;-74
2021/03/05 11:10:47;;;;;;;4.77;1.83;;;4.60;99.90;;;;;;5227926;28;20279;-77
2021/03/05 11:13:20;;;;;;;6.27;1.63;;;4.60;99.90;;;;;;5227539;28;20261;-73
2021/03/05 11:15:51;;;;;;;5.07;1.83;;;4.00;99.90;;;;;;5228283;28;20671;-73
2021/03/05 11:18:23;;;;;;;6.00;1.60;;;3.60;99.90;;;;;;5227128;28;20215;-73
2021/03/05 11:20:56;;;;;;;5.80;2.10;;;3.50;99.90;;;;;;5228455;28;20198;-75
2021/03/05 11:23:29;;;;;;;3.97;2.17;;;3.50;99.90;;;;;;5229462;28;20213;-75
2021/03/05 11:26:00;;;;;;;7.13;1.70;;;3.60;99.90;;;;;;5230952;28;20197;-77
2021/03/05 11:28:33;;;;;;;5.63;2.25;;;3.50;99.90;;;;;;5233955;28;20403;-74
2021/03/05 11:31:06;;;;;;;4.07;2.00;;;3.50;99.90;;;;;;5236132;28;20228;-77
2021/03/05 11:33:39;;;;;;;5.10;1.43;;;3.30;99.90;;;;;;5230378;28;20206;-76
2021/03/05 11:36:13;;;;;;;1.87;1.10;;;3.20;99.90;;;;;;5229939;28;20245;-76
2021/03/05 11:38:46;;;;;;;4.00;1.43;;;3.00;99.90;;;;;;5229847;28;20284;-78
2021/03/05 11:41:18;;;;;;;1.90;1.20;;;2.90;99.90;;;;;;5227871;28;20190;-80
2021/03/05 11:43:52;;;;;;;4.53;1.47;;;2.90;99.90;;;;;;5226090;28;20201;-73
2021/03/05 11:46:24;;;;;;;9.43;2.10;;;3.00;99.90;;;;;;5227644;28;20190;-74
2021/03/05 11:48:55;;;;;;;5.30;1.40;;;3.30;99.90;;;;;;5227076;28;20221;-77
2021/03/05 11:51:27;;;;;;;2.90;1.23;;;3.50;99.90;;;;;;5227422;28;20280;-75
2021/03/05 11:53:58;;;;;;;5.93;1.30;;;3.80;99.90;;;;;;5227387;28;20640;-72
2021/03/05 12:00:17;;;;;;;2.33;1.07;;;4.20;99.90;;;;;;5226007;28;20192;-73
2021/03/05 12:02:48;;;;;;;3.23;1.33;;;4.40;99.90;;;;;;5229594;28;20297;-76
2021/03/05 12:05:20;;;;;;;4.30;1.73;;;4.00;99.90;;;;;;5229892;28;20601;-72
2021/03/05 12:07:52;;;;;;;4.87;1.07;;;4.00;99.90;;;;;;5231227;28;20189;-75
2021/03/05 12:10:24;;;;;;;3.53;0.90;;;3.90;99.90;;;;;;5231055;28;20285;-75
2021/03/05 12:17:19;;;;;;;2.80;0.90;;;3.30;99.90;;;;;;5228733;28;20715;-75
2021/03/05 12:19:51;;;;;;;1.97;0.80;;;1.60;99.90;;;;;;5230718;28;20192;-77
2021/03/05 12:22:23;;;;;;;6.33;0.70;;;1.10;99.90;;;;;;5229835;28;20316;-74
2021/03/05 12:24:55;;;;;;;1.10;0.80;;;0.80;99.90;;;;;;5230413;28;20198;-75
2021/03/05 12:31:52;;;;;;;3.13;1.27;;;0.90;99.90;;;;;;5231041;28;20200;-75
2021/03/05 12:34:24;;;;;;;2.37;1.20;;;1.00;99.90;;;;;;5229957;28;20201;-75
2021/03/05 12:36:58;;;;;;;3.50;1.40;;;1.10;99.90;;;;;;5230678;28;20292;-78
2021/03/05 12:39:32;;;;;;;4.27;1.63;;;1.30;99.90;;;;;;5230797;28;20275;-74
2021/03/05 12:42:04;;;;;;;3.67;1.60;;;1.60;99.90;;;;;;5230869;28;20653;-73
2021/03/05 12:44:37;;;;;;;5.63;1.67;;;1.90;99.90;;;;;;5231653;28;20201;-74
2021/03/05 12:47:08;;;;;;;4.80;2.20;;;2.20;99.90;;;;;;5231797;28;20198;-76
2021/03/05 12:49:40;;;;;;;6.93;2.40;;;2.50;99.90;;;;;;5231595;28;20559;-78
2021/03/05 12:52:12;;;;;;;5.13;2.23;;;2.90;99.90;;;;;;5231274;28;20194;-72
2021/03/05 12:54:44;;;;;;;5.00;2.37;;;3.20;99.90;;;;;;5229590;28;20433;-75
2021/03/05 12:57:16;;;;;;;5.27;2.23;;;3.50;99.90;;;;;;5229220;28;20193;-75
2021/03/05 12:59:48;;;;;;;3.83;2.27;;;3.80;99.90;;;;;;5230213;28;20228;-75
2021/03/05 13:02:20;;;;;;;7.00;2.20;;;4.10;99.90;;;;;;5230459;28;20259;-77
2021/03/05 13:04:51;;;;;;;7.47;2.63;;;4.30;99.90;;;;;;5229951;28;20236;-75
2021/03/05 13:07:23;;;;;;;4.80;2.03;;;4.30;99.90;;;;;;5230175;28;20288;-74
2021/03/05 13:09:54;;;;;;;8.67;2.00;;;4.40;99.90;;;;;;5228948;28;20604;-74
2021/03/05 13:12:26;;;;;;;2.80;1.47;;;4.30;99.90;;;;;;5229865;28;20194;-77
2021/03/05 13:14:58;;;;;;;5.03;1.43;;;4.40;99.90;;;;;;5230220;28;20221;-73
2021/03/05 13:17:29;;;;;;;7.43;1.17;;;4.40;99.90;;;;;;5230031;28;20663;-76
2021/03/05 13:20:06;;;;;;;3.40;0.80;;;4.30;99.90;;;;;;5228657;28;20939;-77
2021/03/05 13:22:39;;;;;;;1.93;0.80;;;4.10;99.90;;;;;;5229005;28;20675;-74
2021/03/05 13:25:13;;;;;;;4.53;1.03;;;3.90;99.90;;;;;;5229358;28;20204;-72
2021/03/05 13:27:45;;;;;;;2.40;1.17;;;3.90;99.90;;;;;;5229099;28;20251;-75
2021/03/05 13:30:17;;;;;;;1.33;0.90;;;3.70;99.90;;;;;;5228437;28;20212;-73
2021/03/05 13:32:48;;;;;;;3.83;1.00;;;3.60;99.90;;;;;;5229794;28;20200;-74
2021/03/05 13:35:20;;;;;;;3.70;0.87;;;3.60;99.90;;;;;;5229291;28;20684;-76
2021/03/05 13:37:53;;;;;;;3.33;0.90;;;3.50;99.90;;;;;;5229784;28;20200;-78
2021/03/05 13:40:29;;;;;;;2.20;0.60;;;3.50;99.90;;;;;;5229184;28;20201;-75
2021/03/05 13:43:00;;;;;;;2.20;0.90;;;3.40;99.90;;;;;;5228630;28;20201;-75
2021/03/05 13:45:40;;;;;;;4.13;1.00;;;3.50;99.90;;;;;;5229931;28;20219;-73
2021/03/05 13:48:14;;;;;;;5.37;0.97;;;3.50;99.90;;;;;;5229578;28;20205;-75
2021/03/05 13:50:47;;;;;;;3.40;1.00;;;3.30;99.90;;;;;;5230074;28;20198;-75
2021/03/05 13:53:19;;;;;;;2.60;1.20;;;3.60;99.90;;;;;;5231262;28;20222;-75
2021/03/05 13:55:52;;;;;;;2.70;1.10;;;4.00;99.90;;;;;;5226848;28;20229;-73
2021/03/05 13:58:24;;;;;;;2.87;1.00;;;4.00;99.90;;;;;;5231089;28;20225;-71
2021/03/05 14:00:56;;;;;;;5.73;1.63;;;4.00;99.90;;;;;;5234444;28;20277;-73
2021/03/05 14:03:29;;;;;;;1.50;0.90;;;4.20;99.90;;;;;;5235040;28;20190;-73
2021/03/05 14:06:01;;;;;;;1.50;1.00;;;4.40;99.90;;;;;;5233503;28;20198;-74
2021/03/05 14:08:33;;;;;;;3.08;1.10;;;4.10;99.90;;;;;;5233705;28;20429;-73
2021/03/05 14:11:05;;;;;;;5.03;1.13;;;3.90;99.90;;;;;;5234602;28;20217;-73
2021/03/05 14:13:37;;;;;;;2.37;1.00;;;3.70;99.90;;;;;;5232647;28;20648;-74
2021/03/05 14:16:19;;;;;;;2.80;1.30;;;3.40;99.90;;;;;;5229350;28;20283;-73
2021/03/05 14:18:50;;;;;;;2.17;1.30;;;3.20;99.90;;;;;;5229532;28;20221;-71
2021/03/05 14:21:22;;;;;;;4.33;1.00;;;3.20;99.90;;;;;;5227815;28;20193;-75
2021/03/05 14:23:53;;;;;;;3.83;1.20;;;3.10;99.90;;;;;;5229254;28;20216;-72